sensor_id;sensor_type;location;lat;lon;timestamp;P1;durP1;ratioP1;P2;durP2;ratioP2
7485;SDS011;3784;54.098;9.998;2023-05-23T00:01:57;71.07;;;67.73;;
7485;SDS011;3784;54.098;9.998;2023-05-23T00:04:25;76.73;;;72.93;;
7485;SDS011;3784;54.098;9.998;2023-05-23T00:06:52;75.30;;;71.43;;
7485;SDS011;3784;54.098;9.998;2023-05-23T00:09:19;66.50;;;63.07;;
7485;SDS011;3784;54.098;9.998;2023-05-23T00:11:46;71.50;;;68.03;;
7485;SDS011;3784;54.098;9.998;2023-05-23T00:14:13;71.27;;;67.90;;
7485;SDS011;3784;54.098;9.998;2023-05-23T00:16:40;69.77;;;66.40;;
7485;SDS011;3784;54.098;9.998;2023-05-23T00:19:08;77.67;;;73.77;;
7485;SDS011;3784;54.098;9.998;2023-05-23T00:21:36;74.70;;;70.60;;
7485;SDS011;3784;54.098;9.998;2023-05-23T00:24:03;65.43;;;62.10;;
7485;SDS011;3784;54.098;9.998;2023-05-23T00:26:30;74.40;;;70.50;;
7485;SDS011;3784;54.098;9.998;2023-05-23T00:28:57;72.70;;;69.13;;
7485;SDS011;3784;54.098;9.998;2023-05-23T00:31:24;83.00;;;78.87;;
7485;SDS011;3784;54.098;9.998;2023-05-23T00:33:50;74.73;;;70.83;;
7485;SDS011;3784;54.098;9.998;2023-05-23T00:36:17;77.37;;;73.47;;
7485;SDS011;3784;54.098;9.998;2023-05-23T00:38:44;73.23;;;69.70;;
7485;SDS011;3784;54.098;9.998;2023-05-23T00:41:14;86.20;;;82.07;;
7485;SDS011;3784;54.098;9.998;2023-05-23T00:43:41;84.93;;;80.80;;
7485;SDS011;3784;54.098;9.998;2023-05-23T00:46:08;83.03;;;78.90;;
7485;SDS011;3784;54.098;9.998;2023-05-23T00:48:36;76.90;;;73.33;;
7485;SDS011;3784;54.098;9.998;2023-05-23T00:51:04;84.67;;;80.27;;
7485;SDS011;3784;54.098;9.998;2023-05-23T00:53:30;83.60;;;79.63;;
7485;SDS011;3784;54.098;9.998;2023-05-23T00:55:57;93.53;;;89.17;;
7485;SDS011;3784;54.098;9.998;2023-05-23T00:58:23;86.40;;;82.17;;
7485;SDS011;3784;54.098;9.998;2023-05-23T01:00:50;83.60;;;79.53;;
7485;SDS011;3784;54.098;9.998;2023-05-23T01:03:19;89.23;;;84.90;;
7485;SDS011;3784;54.098;9.998;2023-05-23T01:05:46;81.70;;;77.57;;
7485;SDS011;3784;54.098;9.998;2023-05-23T01:08:13;84.83;;;80.57;;
7485;SDS011;3784;54.098;9.998;2023-05-23T01:10:41;84.00;;;79.83;;
7485;SDS011;3784;54.098;9.998;2023-05-23T01:18:36;98.07;;;93.27;;
7485;SDS011;3784;54.098;9.998;2023-05-23T01:21:13;81.90;;;77.70;;
7485;SDS011;3784;54.098;9.998;2023-05-23T01:26:43;96.60;;;91.97;;
7485;SDS011;3784;54.098;9.998;2023-05-23T01:29:19;86.90;;;82.57;;
7485;SDS011;3784;54.098;9.998;2023-05-23T01:31:49;102.43;;;97.70;;
7485;SDS011;3784;54.098;9.998;2023-05-23T01:34:18;98.13;;;93.63;;
7485;SDS011;3784;54.098;9.998;2023-05-23T01:36:48;96.17;;;91.40;;
7485;SDS011;3784;54.098;9.998;2023-05-23T01:39:15;110.77;;;105.33;;
7485;SDS011;3784;54.098;9.998;2023-05-23T01:41:42;100.20;;;95.23;;
7485;SDS011;3784;54.098;9.998;2023-05-23T01:44:08;96.43;;;91.67;;
7485;SDS011;3784;54.098;9.998;2023-05-23T01:46:35;115.03;;;109.57;;
7485;SDS011;3784;54.098;9.998;2023-05-23T01:49:04;109.20;;;104.07;;
7485;SDS011;3784;54.098;9.998;2023-05-23T01:51:32;97.73;;;93.20;;
7485;SDS011;3784;54.098;9.998;2023-05-23T01:53:59;102.07;;;97.00;;
7485;SDS011;3784;54.098;9.998;2023-05-23T01:56:26;102.47;;;97.47;;
7485;SDS011;3784;54.098;9.998;2023-05-23T01:58:53;108.67;;;103.50;;
7485;SDS011;3784;54.098;9.998;2023-05-23T02:01:20;118.70;;;113.17;;
7485;SDS011;3784;54.098;9.998;2023-05-23T02:03:47;114.60;;;109.27;;
7485;SDS011;3784;54.098;9.998;2023-05-23T02:06:14;128.73;;;122.67;;
7485;SDS011;3784;54.098;9.998;2023-05-23T02:08:41;126.00;;;120.03;;
7485;SDS011;3784;54.098;9.998;2023-05-23T02:11:07;130.67;;;124.67;;
7485;SDS011;3784;54.098;9.998;2023-05-23T02:13:34;18.27;;;16.60;;
7485;SDS011;3784;54.098;9.998;2023-05-23T02:16:00;18.73;;;16.53;;
7485;SDS011;3784;54.098;9.998;2023-05-23T02:18:27;18.83;;;17.20;;
7485;SDS011;3784;54.098;9.998;2023-05-23T02:20:55;19.17;;;17.47;;
7485;SDS011;3784;54.098;9.998;2023-05-23T02:23:21;19.80;;;17.90;;
7485;SDS011;3784;54.098;9.998;2023-05-23T02:25:48;19.70;;;17.53;;
7485;SDS011;3784;54.098;9.998;2023-05-23T02:28:14;20.73;;;18.83;;
7485;SDS011;3784;54.098;9.998;2023-05-23T02:30:41;17.87;;;16.17;;
7485;SDS011;3784;54.098;9.998;2023-05-23T02:33:07;19.47;;;17.87;;
7485;SDS011;3784;54.098;9.998;2023-05-23T02:35:34;19.07;;;17.20;;
7485;SDS011;3784;54.098;9.998;2023-05-23T02:38:00;19.77;;;17.87;;
7485;SDS011;3784;54.098;9.998;2023-05-23T02:40:27;19.70;;;17.97;;
7485;SDS011;3784;54.098;9.998;2023-05-23T02:42:53;18.67;;;17.07;;
7485;SDS011;3784;54.098;9.998;2023-05-23T02:45:22;16.60;;;15.13;;
7485;SDS011;3784;54.098;9.998;2023-05-23T02:47:49;18.40;;;16.83;;
7485;SDS011;3784;54.098;9.998;2023-05-23T02:50:16;18.23;;;16.37;;
7485;SDS011;3784;54.098;9.998;2023-05-23T02:52:42;18.20;;;16.30;;
7485;SDS011;3784;54.098;9.998;2023-05-23T02:55:09;18.00;;;16.20;;
7485;SDS011;3784;54.098;9.998;2023-05-23T02:57:36;18.57;;;16.80;;
7485;SDS011;3784;54.098;9.998;2023-05-23T03:00:02;18.43;;;16.90;;
7485;SDS011;3784;54.098;9.998;2023-05-23T03:02:29;17.63;;;15.90;;
7485;SDS011;3784;54.098;9.998;2023-05-23T03:04:56;17.97;;;16.50;;
7485;SDS011;3784;54.098;9.998;2023-05-23T03:07:23;16.90;;;15.50;;
7485;SDS011;3784;54.098;9.998;2023-05-23T03:09:54;18.00;;;16.43;;
7485;SDS011;3784;54.098;9.998;2023-05-23T03:12:21;18.87;;;17.13;;
7485;SDS011;3784;54.098;9.998;2023-05-23T03:14:47;18.90;;;17.20;;
7485;SDS011;3784;54.098;9.998;2023-05-23T03:17:14;17.97;;;16.53;;
7485;SDS011;3784;54.098;9.998;2023-05-23T03:19:41;18.93;;;17.23;;
7485;SDS011;3784;54.098;9.998;2023-05-23T03:22:08;18.57;;;16.77;;
7485;SDS011;3784;54.098;9.998;2023-05-23T03:24:34;16.73;;;15.27;;
7485;SDS011;3784;54.098;9.998;2023-05-23T03:27:01;17.93;;;16.47;;
7485;SDS011;3784;54.098;9.998;2023-05-23T03:29:28;16.63;;;15.23;;
7485;SDS011;3784;54.098;9.998;2023-05-23T03:31:55;16.43;;;14.93;;
7485;SDS011;3784;54.098;9.998;2023-05-23T03:34:21;18.23;;;15.23;;
7485;SDS011;3784;54.098;9.998;2023-05-23T03:36:49;15.83;;;14.63;;
7485;SDS011;3784;54.098;9.998;2023-05-23T03:39:16;18.73;;;16.93;;
7485;SDS011;3784;54.098;9.998;2023-05-23T03:41:42;20.30;;;18.43;;
7485;SDS011;3784;54.098;9.998;2023-05-23T03:44:09;17.67;;;16.03;;
7485;SDS011;3784;54.098;9.998;2023-05-23T03:46:36;19.20;;;17.60;;
7485;SDS011;3784;54.098;9.998;2023-05-23T03:49:05;23.50;;;19.47;;
7485;SDS011;3784;54.098;9.998;2023-05-23T03:51:32;20.60;;;18.73;;
7485;SDS011;3784;54.098;9.998;2023-05-23T03:53:59;22.13;;;19.80;;
7485;SDS011;3784;54.098;9.998;2023-05-23T03:56:26;23.97;;;21.50;;
7485;SDS011;3784;54.098;9.998;2023-05-23T03:58:52;22.07;;;19.90;;
7485;SDS011;3784;54.098;9.998;2023-05-23T04:01:19;24.07;;;21.67;;
7485;SDS011;3784;54.098;9.998;2023-05-23T04:03:46;24.33;;;21.77;;
7485;SDS011;3784;54.098;9.998;2023-05-23T04:06:13;23.57;;;21.17;;
7485;SDS011;3784;54.098;9.998;2023-05-23T04:08:40;24.10;;;21.63;;
7485;SDS011;3784;54.098;9.998;2023-05-23T04:11:07;24.77;;;22.17;;
7485;SDS011;3784;54.098;9.998;2023-05-23T04:13:34;26.13;;;22.77;;
7485;SDS011;3784;54.098;9.998;2023-05-23T04:16:00;26.20;;;23.53;;
7485;SDS011;3784;54.098;9.998;2023-05-23T04:18:31;25.67;;;23.10;;
7485;SDS011;3784;54.098;9.998;2023-05-23T04:21:01;28.13;;;25.10;;
7485;SDS011;3784;54.098;9.998;2023-05-23T04:23:27;28.03;;;25.13;;
7485;SDS011;3784;54.098;9.998;2023-05-23T04:25:54;25.43;;;23.07;;
7485;SDS011;3784;54.098;9.998;2023-05-23T04:28:22;29.63;;;24.83;;
7485;SDS011;3784;54.098;9.998;2023-05-23T04:30:49;24.77;;;22.20;;
7485;SDS011;3784;54.098;9.998;2023-05-23T04:33:16;24.97;;;22.57;;
7485;SDS011;3784;54.098;9.998;2023-05-23T04:35:43;26.73;;;23.80;;
7485;SDS011;3784;54.098;9.998;2023-05-23T04:38:10;34.17;;;30.57;;
7485;SDS011;3784;54.098;9.998;2023-05-23T04:40:38;32.83;;;28.87;;
7485;SDS011;3784;54.098;9.998;2023-05-23T04:43:05;31.17;;;27.80;;
7485;SDS011;3784;54.098;9.998;2023-05-23T04:45:31;33.57;;;30.07;;
7485;SDS011;3784;54.098;9.998;2023-05-23T04:47:59;28.97;;;26.27;;
7485;SDS011;3784;54.098;9.998;2023-05-23T04:50:25;32.40;;;29.20;;
7485;SDS011;3784;54.098;9.998;2023-05-23T04:52:56;34.63;;;31.33;;
7485;SDS011;3784;54.098;9.998;2023-05-23T04:55:23;36.97;;;33.10;;
7485;SDS011;3784;54.098;9.998;2023-05-23T04:57:50;38.33;;;34.57;;
7485;SDS011;3784;54.098;9.998;2023-05-23T05:00:16;39.87;;;35.70;;
7485;SDS011;3784;54.098;9.998;2023-05-23T05:02:43;42.90;;;36.30;;
7485;SDS011;3784;54.098;9.998;2023-05-23T05:05:09;42.60;;;38.27;;
7485;SDS011;3784;54.098;9.998;2023-05-23T05:07:36;41.73;;;37.40;;
7485;SDS011;3784;54.098;9.998;2023-05-23T05:10:03;38.10;;;34.47;;
7485;SDS011;3784;54.098;9.998;2023-05-23T05:12:30;38.17;;;34.10;;
7485;SDS011;3784;54.098;9.998;2023-05-23T05:14:56;33.10;;;29.97;;
7485;SDS011;3784;54.098;9.998;2023-05-23T05:17:23;31.50;;;28.40;;
7485;SDS011;3784;54.098;9.998;2023-05-23T05:19:50;34.37;;;31.03;;
7485;SDS011;3784;54.098;9.998;2023-05-23T05:22:16;32.77;;;29.67;;
7485;SDS011;3784;54.098;9.998;2023-05-23T05:24:43;32.40;;;29.20;;
7485;SDS011;3784;54.098;9.998;2023-05-23T05:27:10;33.37;;;30.03;;
7485;SDS011;3784;54.098;9.998;2023-05-23T05:29:37;33.93;;;30.43;;
7485;SDS011;3784;54.098;9.998;2023-05-23T05:32:03;32.20;;;28.47;;
7485;SDS011;3784;54.098;9.998;2023-05-23T05:34:30;34.37;;;30.77;;
7485;SDS011;3784;54.098;9.998;2023-05-23T05:36:57;34.40;;;30.80;;
7485;SDS011;3784;54.098;9.998;2023-05-23T05:39:23;32.40;;;28.97;;
7485;SDS011;3784;54.098;9.998;2023-05-23T05:41:51;33.70;;;29.97;;
7485;SDS011;3784;54.098;9.998;2023-05-23T05:44:18;28.90;;;25.90;;
7485;SDS011;3784;54.098;9.998;2023-05-23T05:46:44;29.47;;;26.40;;
7485;SDS011;3784;54.098;9.998;2023-05-23T05:49:11;28.90;;;26.07;;
7485;SDS011;3784;54.098;9.998;2023-05-23T05:51:38;34.23;;;29.30;;
7485;SDS011;3784;54.098;9.998;2023-05-23T05:54:04;28.30;;;24.10;;
7485;SDS011;3784;54.098;9.998;2023-05-23T05:56:31;23.27;;;20.73;;
7485;SDS011;3784;54.098;9.998;2023-05-23T05:58:58;26.77;;;22.10;;
7485;SDS011;3784;54.098;9.998;2023-05-23T06:01:24;26.17;;;23.33;;
7485;SDS011;3784;54.098;9.998;2023-05-23T06:03:52;25.70;;;23.00;;
7485;SDS011;3784;54.098;9.998;2023-05-23T06:06:18;29.00;;;26.17;;
7485;SDS011;3784;54.098;9.998;2023-05-23T06:08:45;29.60;;;25.67;;
7485;SDS011;3784;54.098;9.998;2023-05-23T06:11:11;26.37;;;23.93;;
7485;SDS011;3784;54.098;9.998;2023-05-23T06:13:38;27.67;;;25.13;;
7485;SDS011;3784;54.098;9.998;2023-05-23T06:16:05;27.83;;;25.30;;
7485;SDS011;3784;54.098;9.998;2023-05-23T06:18:32;27.17;;;24.73;;
7485;SDS011;3784;54.098;9.998;2023-05-23T06:20:58;26.43;;;24.10;;
7485;SDS011;3784;54.098;9.998;2023-05-23T06:23:25;27.30;;;24.80;;
7485;SDS011;3784;54.098;9.998;2023-05-23T06:25:52;26.60;;;24.20;;
7485;SDS011;3784;54.098;9.998;2023-05-23T06:28:18;28.73;;;26.20;;
7485;SDS011;3784;54.098;9.998;2023-05-23T06:30:45;27.73;;;25.10;;
7485;SDS011;3784;54.098;9.998;2023-05-23T06:33:11;23.20;;;21.03;;
7485;SDS011;3784;54.098;9.998;2023-05-23T06:35:38;26.87;;;24.27;;
7485;SDS011;3784;54.098;9.998;2023-05-23T06:38:05;27.07;;;24.63;;
7485;SDS011;3784;54.098;9.998;2023-05-23T06:40:31;25.53;;;23.50;;
7485;SDS011;3784;54.098;9.998;2023-05-23T06:42:58;24.70;;;22.50;;
7485;SDS011;3784;54.098;9.998;2023-05-23T06:45:24;25.23;;;22.83;;
7485;SDS011;3784;54.098;9.998;2023-05-23T06:47:52;26.00;;;23.73;;
7485;SDS011;3784;54.098;9.998;2023-05-23T06:50:19;25.70;;;23.40;;
7485;SDS011;3784;54.098;9.998;2023-05-23T06:52:45;24.40;;;22.30;;
7485;SDS011;3784;54.098;9.998;2023-05-23T06:55:12;24.73;;;22.57;;
7485;SDS011;3784;54.098;9.998;2023-05-23T06:57:43;22.20;;;20.23;;
7485;SDS011;3784;54.098;9.998;2023-05-23T07:00:10;25.53;;;23.23;;
7485;SDS011;3784;54.098;9.998;2023-05-23T07:02:38;37.23;;;34.50;;
7485;SDS011;3784;54.098;9.998;2023-05-23T07:05:05;23.43;;;21.70;;
7485;SDS011;3784;54.098;9.998;2023-05-23T07:07:32;23.03;;;21.17;;
7485;SDS011;3784;54.098;9.998;2023-05-23T07:09:58;22.67;;;20.53;;
7485;SDS011;3784;54.098;9.998;2023-05-23T07:12:25;19.30;;;17.77;;
7485;SDS011;3784;54.098;9.998;2023-05-23T07:14:51;21.37;;;19.77;;
7485;SDS011;3784;54.098;9.998;2023-05-23T07:17:18;22.20;;;20.50;;
7485;SDS011;3784;54.098;9.998;2023-05-23T07:19:45;21.37;;;19.43;;
7485;SDS011;3784;54.098;9.998;2023-05-23T07:22:11;20.57;;;18.67;;
7485;SDS011;3784;54.098;9.998;2023-05-23T07:24:38;22.87;;;21.07;;
7485;SDS011;3784;54.098;9.998;2023-05-23T07:27:04;22.27;;;20.57;;
7485;SDS011;3784;54.098;9.998;2023-05-23T07:29:31;24.53;;;22.63;;
7485;SDS011;3784;54.098;9.998;2023-05-23T07:31:58;24.33;;;22.23;;
7485;SDS011;3784;54.098;9.998;2023-05-23T07:34:24;24.87;;;22.77;;
7485;SDS011;3784;54.098;9.998;2023-05-23T07:36:52;23.77;;;21.97;;
7485;SDS011;3784;54.098;9.998;2023-05-23T07:39:18;21.40;;;19.77;;
7485;SDS011;3784;54.098;9.998;2023-05-23T07:41:47;24.27;;;22.47;;
7485;SDS011;3784;54.098;9.998;2023-05-23T07:44:16;21.40;;;19.70;;
7485;SDS011;3784;54.098;9.998;2023-05-23T07:46:43;21.37;;;19.77;;
7485;SDS011;3784;54.098;9.998;2023-05-23T07:49:10;22.77;;;21.07;;
7485;SDS011;3784;54.098;9.998;2023-05-23T07:51:36;20.30;;;18.80;;
7485;SDS011;3784;54.098;9.998;2023-05-23T07:54:03;28.03;;;26.07;;
7485;SDS011;3784;54.098;9.998;2023-05-23T07:56:30;21.37;;;19.77;;
7485;SDS011;3784;54.098;9.998;2023-05-23T07:58:56;18.97;;;17.20;;
7485;SDS011;3784;54.098;9.998;2023-05-23T08:01:23;18.73;;;17.33;;
7485;SDS011;3784;54.098;9.998;2023-05-23T08:03:51;17.97;;;16.67;;
7485;SDS011;3784;54.098;9.998;2023-05-23T08:06:17;17.57;;;16.17;;
7485;SDS011;3784;54.098;9.998;2023-05-23T08:08:44;16.03;;;14.83;;
7485;SDS011;3784;54.098;9.998;2023-05-23T08:11:11;14.00;;;13.10;;
7485;SDS011;3784;54.098;9.998;2023-05-23T08:13:37;15.33;;;14.23;;
7485;SDS011;3784;54.098;9.998;2023-05-23T08:16:04;15.83;;;14.73;;
7485;SDS011;3784;54.098;9.998;2023-05-23T08:18:31;16.07;;;14.87;;
7485;SDS011;3784;54.098;9.998;2023-05-23T08:20:57;16.93;;;15.80;;
7485;SDS011;3784;54.098;9.998;2023-05-23T08:23:24;16.90;;;15.70;;
7485;SDS011;3784;54.098;9.998;2023-05-23T08:25:51;16.63;;;15.53;;
7485;SDS011;3784;54.098;9.998;2023-05-23T08:28:18;16.87;;;15.63;;
7485;SDS011;3784;54.098;9.998;2023-05-23T08:30:44;16.57;;;15.43;;
7485;SDS011;3784;54.098;9.998;2023-05-23T08:33:12;17.10;;;15.90;;
7485;SDS011;3784;54.098;9.998;2023-05-23T08:35:38;18.10;;;16.57;;
7485;SDS011;3784;54.098;9.998;2023-05-23T08:38:06;35.47;;;31.63;;
7485;SDS011;3784;54.098;9.998;2023-05-23T08:40:35;19.60;;;18.10;;
7485;SDS011;3784;54.098;9.998;2023-05-23T08:43:01;25.10;;;22.47;;
7485;SDS011;3784;54.098;9.998;2023-05-23T08:45:28;21.63;;;19.57;;
7485;SDS011;3784;54.098;9.998;2023-05-23T08:47:55;39.20;;;30.10;;
7485;SDS011;3784;54.098;9.998;2023-05-23T08:50:26;21.97;;;19.97;;
7485;SDS011;3784;54.098;9.998;2023-05-23T08:52:54;22.33;;;20.33;;
7485;SDS011;3784;54.098;9.998;2023-05-23T08:55:25;39.07;;;27.37;;
7485;SDS011;3784;54.098;9.998;2023-05-23T08:57:56;26.87;;;24.23;;
7485;SDS011;3784;54.098;9.998;2023-05-23T09:00:26;18.60;;;16.43;;
7485;SDS011;3784;54.098;9.998;2023-05-23T09:02:53;43.23;;;33.90;;
7485;SDS011;3784;54.098;9.998;2023-05-23T09:05:20;136.43;;;101.30;;
7485;SDS011;3784;54.098;9.998;2023-05-23T09:07:48;29.90;;;24.37;;
7485;SDS011;3784;54.098;9.998;2023-05-23T09:10:14;16.73;;;15.33;;
7485;SDS011;3784;54.098;9.998;2023-05-23T09:12:45;31.60;;;26.63;;
7485;SDS011;3784;54.098;9.998;2023-05-23T09:15:12;15.10;;;13.80;;
7485;SDS011;3784;54.098;9.998;2023-05-23T09:17:39;15.50;;;14.20;;
7485;SDS011;3784;54.098;9.998;2023-05-23T09:20:09;15.43;;;13.97;;
7485;SDS011;3784;54.098;9.998;2023-05-23T09:22:38;16.00;;;14.90;;
7485;SDS011;3784;54.098;9.998;2023-05-23T09:25:05;12.97;;;11.87;;
7485;SDS011;3784;54.098;9.998;2023-05-23T09:27:33;13.37;;;12.07;;
7485;SDS011;3784;54.098;9.998;2023-05-23T09:30:06;12.37;;;11.30;;
7485;SDS011;3784;54.098;9.998;2023-05-23T09:32:34;12.83;;;11.73;;
7485;SDS011;3784;54.098;9.998;2023-05-23T09:35:02;13.83;;;12.73;;
7485;SDS011;3784;54.098;9.998;2023-05-23T09:37:37;13.67;;;12.57;;
7485;SDS011;3784;54.098;9.998;2023-05-23T09:40:06;12.90;;;11.93;;
7485;SDS011;3784;54.098;9.998;2023-05-23T09:42:40;12.83;;;11.83;;
7485;SDS011;3784;54.098;9.998;2023-05-23T09:45:16;13.37;;;12.47;;
7485;SDS011;3784;54.098;9.998;2023-05-23T09:47:49;12.57;;;11.57;;
7485;SDS011;3784;54.098;9.998;2023-05-23T09:50:19;14.37;;;13.20;;
7485;SDS011;3784;54.098;9.998;2023-05-23T09:52:46;27.20;;;22.73;;
7485;SDS011;3784;54.098;9.998;2023-05-23T09:55:13;12.90;;;11.67;;
7485;SDS011;3784;54.098;9.998;2023-05-23T09:57:40;14.10;;;12.97;;
7485;SDS011;3784;54.098;9.998;2023-05-23T10:00:09;14.17;;;12.93;;
7485;SDS011;3784;54.098;9.998;2023-05-23T10:05:13;12.57;;;10.97;;
7485;SDS011;3784;54.098;9.998;2023-05-23T10:07:49;11.40;;;10.30;;
7485;SDS011;3784;54.098;9.998;2023-05-23T10:10:15;13.63;;;12.43;;
7485;SDS011;3784;54.098;9.998;2023-05-23T10:12:45;13.50;;;11.37;;
7485;SDS011;3784;54.098;9.998;2023-05-23T10:15:14;14.27;;;12.90;;
7485;SDS011;3784;54.098;9.998;2023-05-23T10:20:20;112.63;;;63.90;;
7485;SDS011;3784;54.098;9.998;2023-05-23T10:22:51;9.80;;;8.83;;
7485;SDS011;3784;54.098;9.998;2023-05-23T10:25:18;11.07;;;9.43;;
7485;SDS011;3784;54.098;9.998;2023-05-23T10:27:45;12.83;;;11.13;;
7485;SDS011;3784;54.098;9.998;2023-05-23T10:30:14;14.93;;;9.30;;
7485;SDS011;3784;54.098;9.998;2023-05-23T10:32:41;11.00;;;9.87;;
7485;SDS011;3784;54.098;9.998;2023-05-23T10:35:09;11.70;;;10.13;;
7485;SDS011;3784;54.098;9.998;2023-05-23T10:37:58;11.20;;;9.07;;
7485;SDS011;3784;54.098;9.998;2023-05-23T10:45:55;24.43;;;22.20;;
7485;SDS011;3784;54.098;9.998;2023-05-23T10:48:23;16.27;;;15.10;;
7485;SDS011;3784;54.098;9.998;2023-05-23T10:51:01;71.57;;;64.17;;
7485;SDS011;3784;54.098;9.998;2023-05-23T10:53:30;35.43;;;32.63;;
7485;SDS011;3784;54.098;9.998;2023-05-23T10:55:57;17.20;;;16.00;;
7485;SDS011;3784;54.098;9.998;2023-05-23T10:58:23;70.47;;;64.73;;
7485;SDS011;3784;54.098;9.998;2023-05-23T11:01:00;13.27;;;12.10;;
7485;SDS011;3784;54.098;9.998;2023-05-23T11:12:00;21.40;;;19.70;;
7485;SDS011;3784;54.098;9.998;2023-05-23T11:16:56;19.67;;;18.07;;
7485;SDS011;3784;54.098;9.998;2023-05-23T11:19:24;70.03;;;64.80;;
7485;SDS011;3784;54.098;9.998;2023-05-23T11:21:54;127.57;;;119.87;;
7485;SDS011;3784;54.098;9.998;2023-05-23T11:24:21;49.33;;;46.73;;
7485;SDS011;3784;54.098;9.998;2023-05-23T11:29:20;56.10;;;52.87;;
7485;SDS011;3784;54.098;9.998;2023-05-23T11:31:46;57.33;;;53.93;;
7485;SDS011;3784;54.098;9.998;2023-05-23T11:34:13;44.60;;;42.10;;
7485;SDS011;3784;54.098;9.998;2023-05-23T11:36:40;84.90;;;79.63;;
7485;SDS011;3784;54.098;9.998;2023-05-23T11:39:06;40.90;;;38.37;;
7485;SDS011;3784;54.098;9.998;2023-05-23T11:41:33;82.53;;;77.23;;
7485;SDS011;3784;54.098;9.998;2023-05-23T11:44:00;60.97;;;57.33;;
7485;SDS011;3784;54.098;9.998;2023-05-23T11:46:27;63.83;;;60.40;;
7485;SDS011;3784;54.098;9.998;2023-05-23T11:48:54;82.00;;;75.67;;
7485;SDS011;3784;54.098;9.998;2023-05-23T11:51:21;36.80;;;34.57;;
7485;SDS011;3784;54.098;9.998;2023-05-23T11:53:47;152.93;;;143.50;;
7485;SDS011;3784;54.098;9.998;2023-05-23T11:56:14;38.53;;;36.17;;
7485;SDS011;3784;54.098;9.998;2023-05-23T11:58:41;80.97;;;76.57;;
7485;SDS011;3784;54.098;9.998;2023-05-23T12:01:09;54.37;;;51.13;;
7485;SDS011;3784;54.098;9.998;2023-05-23T12:03:46;122.47;;;116.20;;
7485;SDS011;3784;54.098;9.998;2023-05-23T12:06:14;158.57;;;146.97;;
7485;SDS011;3784;54.098;9.998;2023-05-23T12:08:45;152.77;;;142.30;;
7485;SDS011;3784;54.098;9.998;2023-05-23T12:11:12;100.67;;;95.63;;
7485;SDS011;3784;54.098;9.998;2023-05-23T12:13:40;79.53;;;75.17;;
7485;SDS011;3784;54.098;9.998;2023-05-23T12:16:07;75.07;;;70.93;;
7485;SDS011;3784;54.098;9.998;2023-05-23T12:18:36;135.40;;;127.70;;
7485;SDS011;3784;54.098;9.998;2023-05-23T12:21:03;83.47;;;78.47;;
7485;SDS011;3784;54.098;9.998;2023-05-23T12:23:33;198.77;;;183.13;;
7485;SDS011;3784;54.098;9.998;2023-05-23T12:26:02;73.47;;;69.43;;
7485;SDS011;3784;54.098;9.998;2023-05-23T12:28:34;66.03;;;62.23;;
7485;SDS011;3784;54.098;9.998;2023-05-23T12:31:09;128.83;;;120.73;;
7485;SDS011;3784;54.098;9.998;2023-05-23T12:33:42;140.77;;;132.83;;
7485;SDS011;3784;54.098;9.998;2023-05-23T12:36:10;113.70;;;107.37;;
7485;SDS011;3784;54.098;9.998;2023-05-23T12:38:37;46.97;;;44.03;;
7485;SDS011;3784;54.098;9.998;2023-05-23T12:41:07;79.67;;;75.27;;
7485;SDS011;3784;54.098;9.998;2023-05-23T12:43:38;199.77;;;186.77;;
7485;SDS011;3784;54.098;9.998;2023-05-23T12:46:14;82.83;;;78.37;;
7485;SDS011;3784;54.098;9.998;2023-05-23T12:48:41;153.43;;;145.93;;
7485;SDS011;3784;54.098;9.998;2023-05-23T12:51:07;175.73;;;165.27;;
7485;SDS011;3784;54.098;9.998;2023-05-23T12:53:34;65.43;;;61.57;;
7485;SDS011;3784;54.098;9.998;2023-05-23T12:56:01;144.73;;;137.43;;
7485;SDS011;3784;54.098;9.998;2023-05-23T12:58:28;110.53;;;105.07;;
7485;SDS011;3784;54.098;9.998;2023-05-23T13:00:56;89.67;;;85.00;;
7485;SDS011;3784;54.098;9.998;2023-05-23T13:03:24;212.17;;;198.10;;
7485;SDS011;3784;54.098;9.998;2023-05-23T13:05:51;152.47;;;144.47;;
7485;SDS011;3784;54.098;9.998;2023-05-23T13:08:18;53.43;;;50.17;;
7485;SDS011;3784;54.098;9.998;2023-05-23T13:10:46;57.70;;;54.27;;
7485;SDS011;3784;54.098;9.998;2023-05-23T13:13:13;204.83;;;191.03;;
7485;SDS011;3784;54.098;9.998;2023-05-23T13:15:40;61.43;;;57.33;;
7485;SDS011;3784;54.098;9.998;2023-05-23T13:18:08;109.47;;;103.33;;
7485;SDS011;3784;54.098;9.998;2023-05-23T13:20:34;198.90;;;186.70;;
7485;SDS011;3784;54.098;9.998;2023-05-23T13:23:01;128.73;;;120.97;;
7485;SDS011;3784;54.098;9.998;2023-05-23T13:25:28;74.37;;;69.77;;
7485;SDS011;3784;54.098;9.998;2023-05-23T13:27:54;105.67;;;99.97;;
7485;SDS011;3784;54.098;9.998;2023-05-23T13:30:21;88.53;;;82.70;;
7485;SDS011;3784;54.098;9.998;2023-05-23T13:32:48;85.77;;;81.30;;
7485;SDS011;3784;54.098;9.998;2023-05-23T13:35:17;59.63;;;56.37;;
7485;SDS011;3784;54.098;9.998;2023-05-23T13:37:43;95.83;;;90.40;;
7485;SDS011;3784;54.098;9.998;2023-05-23T13:40:17;189.90;;;178.63;;
7485;SDS011;3784;54.098;9.998;2023-05-23T13:42:46;74.33;;;70.30;;
7485;SDS011;3784;54.098;9.998;2023-05-23T13:45:14;76.53;;;72.40;;
7485;SDS011;3784;54.098;9.998;2023-05-23T13:47:40;145.37;;;136.63;;
7485;SDS011;3784;54.098;9.998;2023-05-23T13:50:07;51.37;;;48.23;;
7485;SDS011;3784;54.098;9.998;2023-05-23T13:52:34;85.97;;;81.30;;
7485;SDS011;3784;54.098;9.998;2023-05-23T13:55:02;245.53;;;232.50;;
7485;SDS011;3784;54.098;9.998;2023-05-23T13:57:30;107.30;;;101.57;;
7485;SDS011;3784;54.098;9.998;2023-05-23T13:59:57;220.73;;;206.30;;
7485;SDS011;3784;54.098;9.998;2023-05-23T14:02:24;189.93;;;176.87;;
7485;SDS011;3784;54.098;9.998;2023-05-23T14:04:52;158.63;;;150.60;;
7485;SDS011;3784;54.098;9.998;2023-05-23T14:07:18;95.97;;;90.50;;
7485;SDS011;3784;54.098;9.998;2023-05-23T14:09:45;80.33;;;75.57;;
7485;SDS011;3784;54.098;9.998;2023-05-23T14:12:11;201.03;;;187.63;;
7485;SDS011;3784;54.098;9.998;2023-05-23T14:14:38;137.93;;;130.53;;
7485;SDS011;3784;54.098;9.998;2023-05-23T14:17:04;107.27;;;101.90;;
7485;SDS011;3784;54.098;9.998;2023-05-23T14:19:31;187.87;;;178.37;;
7485;SDS011;3784;54.098;9.998;2023-05-23T14:21:58;78.67;;;74.57;;
7485;SDS011;3784;54.098;9.998;2023-05-23T14:24:24;139.07;;;132.17;;
7485;SDS011;3784;54.098;9.998;2023-05-23T14:26:51;75.57;;;71.17;;
7485;SDS011;3784;54.098;9.998;2023-05-23T14:29:18;222.87;;;211.03;;
7485;SDS011;3784;54.098;9.998;2023-05-23T14:31:44;70.93;;;66.73;;
7485;SDS011;3784;54.098;9.998;2023-05-23T14:34:11;83.77;;;79.57;;
7485;SDS011;3784;54.098;9.998;2023-05-23T14:36:38;399.13;;;369.50;;
7485;SDS011;3784;54.098;9.998;2023-05-23T14:39:05;167.67;;;158.27;;
7485;SDS011;3784;54.098;9.998;2023-05-23T14:41:35;155.43;;;147.00;;
7485;SDS011;3784;54.098;9.998;2023-05-23T14:44:02;207.43;;;194.90;;
7485;SDS011;3784;54.098;9.998;2023-05-23T14:46:29;163.63;;;155.43;;
7485;SDS011;3784;54.098;9.998;2023-05-23T14:48:56;216.50;;;201.40;;
7485;SDS011;3784;54.098;9.998;2023-05-23T14:51:23;215.90;;;203.37;;
7485;SDS011;3784;54.098;9.998;2023-05-23T14:54:09;126.63;;;119.97;;
7485;SDS011;3784;54.098;9.998;2023-05-23T14:56:36;149.10;;;140.13;;
7485;SDS011;3784;54.098;9.998;2023-05-23T14:59:06;114.30;;;108.60;;
7485;SDS011;3784;54.098;9.998;2023-05-23T15:01:33;151.00;;;142.30;;
7485;SDS011;3784;54.098;9.998;2023-05-23T15:04:02;311.43;;;291.17;;
7485;SDS011;3784;54.098;9.998;2023-05-23T15:06:31;140.40;;;133.03;;
7485;SDS011;3784;54.098;9.998;2023-05-23T15:08:57;90.13;;;85.33;;
7485;SDS011;3784;54.098;9.998;2023-05-23T15:11:24;72.90;;;68.93;;
7485;SDS011;3784;54.098;9.998;2023-05-23T15:13:52;205.10;;;193.27;;
7485;SDS011;3784;54.098;9.998;2023-05-23T15:16:19;98.93;;;93.60;;
7485;SDS011;3784;54.098;9.998;2023-05-23T15:18:46;124.00;;;117.87;;